Time;durP1;ratioP1;P1;durP2;ratioP2;P2;SDS_P1;SDS_P2;PMS_P1;PMS_P2;Temp;Humidity;BMP_temperature;BMP_pressure;BME280_temperature;BME280_humidity;BME280_pressure;Samples;Min_cycle;Max_cycle;Signal;HPM_P1;HPM_P2
2023/07/30 00:00:54;;;;;;;0.10;0.10;;;;;;;18.54;100.00;98547.34;5112675;28;20214;-56
2023/07/30 00:03:43;;;;;;;0.10;0.10;;;;;;;18.39;100.00;98540.94;5113066;28;20194;-56
2023/07/30 00:06:30;;;;;;;0.10;0.10;;;;;;;18.34;100.00;98551.31;5111714;28;20269;-57
2023/07/30 00:09:16;;;;;;;0.10;0.10;;;;;;;18.42;100.00;98548.63;5112996;28;20189;-57
2023/07/30 00:12:04;;;;;;;0.10;0.10;;;;;;;18.30;100.00;98552.63;5114469;28;20212;-57
2023/07/30 00:14:51;;;;;;;0.10;0.10;;;;;;;18.36;100.00;98549.31;5116819;28;20293;-57
2023/07/30 00:17:38;;;;;;;0.10;0.10;;;;;;;18.41;100.00;98552.31;5116944;28;20198;-57
2023/07/30 00:20:26;;;;;;;0.10;0.10;;;;;;;18.43;100.00;98553.03;5116954;28;20218;-57
2023/07/30 00:23:13;;;;;;;0.10;0.10;;;;;;;18.33;100.00;98556.81;5114499;28;20740;-57
2023/07/30 00:25:59;;;;;;;0.10;0.10;;;;;;;18.45;100.00;98567.09;5115678;28;20197;-57
2023/07/30 00:28:46;;;;;;;0.10;0.10;;;;;;;18.55;100.00;98565.13;5116757;28;20190;-57
2023/07/30 00:31:33;;;;;;;0.03;0.03;;;;;;;18.52;100.00;98567.28;5116608;28;20257;-56
2023/07/30 00:34:20;;;;;;;0.10;0.10;;;;;;;18.57;100.00;98573.84;5116369;28;20687;-57
2023/07/30 00:37:09;;;;;;;0.10;0.10;;;;;;;18.53;100.00;98568.97;5115076;28;20186;-57
2023/07/30 00:39:55;;;;;;;0.07;0.07;;;;;;;18.54;100.00;98576.03;5116377;28;20214;-57
2023/07/30 00:42:42;;;;;;;0.10;0.10;;;;;;;18.46;100.00;98578.69;5116424;28;20683;-57
2023/07/30 00:45:30;;;;;;;0.10;0.10;;;;;;;18.65;100.00;98575.75;5116365;28;20240;-57
2023/07/30 00:48:16;;;;;;;0.10;0.10;;;;;;;18.62;100.00;98570.66;5115347;28;20190;-57
2023/07/30 00:51:04;;;;;;;0.10;0.10;;;;;;;18.64;100.00;98566.00;5116178;28;20194;-57
2023/07/30 00:53:52;;;;;;;0.13;0.13;;;;;;;18.67;100.00;98571.06;5116312;28;20209;-57
2023/07/30 00:56:45;;;;;;;0.10;0.10;;;;;;;18.60;100.00;98560.09;5115194;28;20194;-57
2023/07/30 00:59:32;;;;;;;0.10;0.10;;;;;;;18.68;100.00;98569.22;5115973;28;20202;-57
2023/07/30 01:02:19;;;;;;;0.10;0.10;;;;;;;18.55;100.00;98558.94;5115034;28;20189;-57
2023/07/30 01:05:07;;;;;;;0.00;0.00;;;;;;;18.55;100.00;98569.66;5114979;28;20205;-57
2023/07/30 01:07:54;;;;;;;0.10;0.10;;;;;;;18.37;100.00;98572.44;5114576;28;20206;-57
2023/07/30 01:10:43;;;;;;;0.10;0.10;;;;;;;18.28;100.00;98579.59;5115805;28;20190;-57
2023/07/30 01:13:31;;;;;;;0.10;0.10;;;;;;;18.38;100.00;98576.78;5115746;28;20276;-57
2023/07/30 01:16:18;;;;;;;0.10;0.10;;;;;;;18.41;100.00;98575.63;5114769;28;20313;-57
2023/07/30 01:19:07;;;;;;;0.10;0.10;;;;;;;18.38;100.00;98584.00;5114569;28;20193;-57
2023/07/30 01:21:55;;;;;;;0.10;0.10;;;;;;;18.40;100.00;98580.16;5114065;28;20214;-57
2023/07/30 01:24:42;;;;;;;0.10;0.10;;;;;;;18.45;100.00;98582.38;5114475;28;20185;-57
2023/07/30 01:27:30;;;;;;;0.00;0.00;;;;;;;18.35;100.00;98581.66;5114425;28;20195;-57
2023/07/30 01:30:22;;;;;;;0.10;0.10;;;;;;;18.30;100.00;98591.00;5114577;28;20186;-57
2023/07/30 01:33:11;;;;;;;0.10;0.10;;;;;;;18.46;100.00;98592.09;5115388;28;20194;-57
2023/07/30 01:35:59;;;;;;;0.10;0.10;;;;;;;18.27;100.00;98591.34;5114810;28;20301;-57
2023/07/30 01:38:48;;;;;;;0.10;0.10;;;;;;;18.25;100.00;98590.66;5115311;28;20198;-57
2023/07/30 01:41:35;;;;;;;0.10;0.10;;;;;;;18.32;100.00;98598.88;5115035;28;20221;-57
2023/07/30 01:44:22;;;;;;;0.10;0.10;;;;;;;18.32;100.00;98601.56;5115076;28;20756;-57
2023/07/30 01:47:09;;;;;;;0.10;0.10;;;;;;;18.38;100.00;98589.38;5115079;28;20185;-56
2023/07/30 01:49:56;;;;;;;0.10;0.10;;;;;;;18.39;100.00;98591.88;5115314;28;20668;-57
2023/07/30 01:52:44;;;;;;;0.10;0.10;;;;;;;18.43;100.00;98600.44;5113731;28;20202;-57
2023/07/30 01:55:32;;;;;;;0.10;0.10;;;;;;;18.38;100.00;98594.72;5115022;28;20313;-57
2023/07/30 01:58:19;;;;;;;0.10;0.10;;;;;;;18.40;100.00;98595.41;5113951;28;20197;-57
2023/07/30 02:01:06;;;;;;;0.00;0.00;;;;;;;18.39;100.00;98599.09;5113515;28;20259;-57
2023/07/30 02:03:53;;;;;;;0.10;0.10;;;;;;;18.28;100.00;98608.25;5114910;28;20194;-57
2023/07/30 02:06:40;;;;;;;0.10;0.10;;;;;;;18.28;100.00;98616.31;5113484;28;20190;-57
2023/07/30 02:09:28;;;;;;;0.10;0.10;;;;;;;18.30;100.00;98612.47;5113549;28;20190;-57
2023/07/30 02:12:16;;;;;;;0.00;0.00;;;;;;;18.39;100.00;98613.34;5114395;28;20190;-57
2023/07/30 02:15:04;;;;;;;0.10;0.10;;;;;;;18.41;100.00;98621.22;5113625;28;20194;-57
2023/07/30 02:17:50;;;;;;;0.10;0.10;;;;;;;18.41;100.00;98627.41;5114467;28;20206;-56
2023/07/30 02:20:37;;;;;;;0.00;0.00;;;;;;;18.43;100.00;98625.44;5114474;28;20262;-56
2023/07/30 02:23:24;;;;;;;0.10;0.10;;;;;;;18.31;100.00;98632.06;5112066;28;20194;-57
2023/07/30 02:26:11;;;;;;;0.10;0.10;;;;;;;18.37;100.00;98628.75;5114316;28;20193;-57
2023/07/30 02:29:00;;;;;;;0.00;0.00;;;;;;;18.30;100.00;98622.34;5113347;28;20260;-57
2023/07/30 02:31:47;;;;;;;0.00;0.00;;;;;;;18.26;100.00;98621.84;5113252;28;20190;-56
2023/07/30 02:34:34;;;;;;;0.10;0.10;;;;;;;18.16;100.00;98629.16;5113353;28;20814;-56
2023/07/30 02:37:20;;;;;;;0.10;0.10;;;;;;;18.24;100.00;98636.41;5112776;28;20334;-57
2023/07/30 02:40:09;;;;;;;0.10;0.10;;;;;;;18.29;100.00;98634.06;5114157;28;20194;-56
2023/07/30 02:42:55;;;;;;;0.10;0.10;;;;;;;18.34;100.00;98633.59;5113979;28;20436;-57
2023/07/30 02:45:43;;;;;;;0.10;0.10;;;;;;;18.31;100.00;98640.09;5112761;28;20680;-57
2023/07/30 02:48:30;;;;;;;0.10;0.10;;;;;;;18.21;100.00;98636.69;5113883;28;20202;-56
2023/07/30 02:51:17;;;;;;;0.10;0.10;;;;;;;18.06;100.00;98641.00;5112494;28;20440;-56
2023/07/30 02:54:06;;;;;;;0.10;0.10;;;;;;;18.07;100.00;98643.50;5112865;28;20193;-57
2023/07/30 02:56:53;;;;;;;0.10;0.10;;;;;;;18.02;100.00;98648.47;5113806;28;20198;-57
2023/07/30 02:59:41;;;;;;;0.10;0.10;;;;;;;18.08;100.00;98649.72;5112675;28;20672;-56
2023/07/30 03:02:29;;;;;;;0.10;0.10;;;;;;;18.06;100.00;98649.03;5112443;28;20324;-56
2023/07/30 03:05:16;;;;;;;0.10;0.10;;;;;;;18.09;100.00;98656.75;5112633;28;20189;-56
2023/07/30 03:08:03;;;;;;;0.10;0.10;;;;;;;18.17;100.00;98656.78;5112307;28;20301;-56
2023/07/30 03:10:50;;;;;;;0.10;0.10;;;;;;;18.19;100.00;98661.00;5113686;28;20198;-57
2023/07/30 03:13:37;;;;;;;0.10;0.10;;;;;;;18.23;100.00;98654.31;5112525;28;20224;-57
2023/07/30 03:16:24;;;;;;;0.10;0.10;;;;;;;18.20;100.00;98659.16;5112563;28;20668;-57
2023/07/30 03:19:12;;;;;;;0.10;0.10;;;;;;;18.13;100.00;98661.63;5113528;28;20198;-56
2023/07/30 03:21:59;;;;;;;0.10;0.10;;;;;;;18.03;100.00;98659.03;5111975;28;20336;-57
2023/07/30 03:24:47;;;;;;;0.10;0.10;;;;;;;18.01;100.00;98655.69;5113421;28;20205;-57
2023/07/30 03:27:34;;;;;;;0.10;0.10;;;;;;;18.03;100.00;98661.72;5113340;28;20194;-57
2023/07/30 03:30:21;;;;;;;0.10;0.10;;;;;;;18.09;100.00;98659.44;5113406;28;20198;-56
2023/07/30 03:33:08;;;;;;;0.10;0.10;;;;;;;18.19;100.00;98668.19;5112397;28;20193;-57
2023/07/30 03:35:57;;;;;;;0.10;0.10;;;;;;;18.16;100.00;98666.69;5113073;28;20286;-57
2023/07/30 03:38:44;;;;;;;0.10;0.10;;;;;;;18.01;100.00;98666.41;5113253;28;20202;-57
2023/07/30 03:41:31;;;;;;;0.10;0.10;;;;;;;17.95;100.00;98674.22;5113254;28;20284;-57
2023/07/30 03:44:18;;;;;;;0.10;0.10;;;;;;;17.83;100.00;98672.81;5113276;28;20198;-57
2023/07/30 03:47:05;;;;;;;0.10;0.10;;;;;;;17.80;100.00;98675.81;5114882;28;20190;-57
2023/07/30 03:49:53;;;;;;;0.10;0.10;;;;;;;17.78;100.00;98677.81;5117396;28;20202;-57
2023/07/30 03:52:41;;;;;;;0.10;0.10;;;;;;;17.71;100.00;98683.78;5116002;28;20190;-57
2023/07/30 03:55:28;;;;;;;0.10;0.10;;;;;;;17.73;100.00;98687.13;5116298;28;20206;-57
2023/07/30 03:58:15;;;;;;;0.10;0.10;;;;;;;17.57;100.00;98691.50;5116335;28;20216;-56
2023/07/30 04:01:02;;;;;;;0.10;0.10;;;;;;;17.57;100.00;98702.22;5117190;28;20709;-57
2023/07/30 04:03:49;;;;;;;0.10;0.10;;;;;;;17.43;100.00;98709.78;5116080;28;20282;-56
2023/07/30 04:06:36;;;;;;;0.10;0.10;;;;;;;17.50;100.00;98709.16;5115825;28;20268;-57
2023/07/30 04:09:24;;;;;;;0.10;0.10;;;;;;;17.55;100.00;98704.19;5117105;28;20316;-57
2023/07/30 04:12:11;;;;;;;0.10;0.10;;;;;;;17.64;100.00;98704.09;5115730;28;20193;-57
2023/07/30 04:14:58;;;;;;;0.10;0.10;;;;;;;17.66;100.00;98699.44;5116928;28;20190;-56
2023/07/30 04:17:46;;;;;;;0.10;0.10;;;;;;;17.57;100.00;98700.38;5116832;28;20193;-57
2023/07/30 04:20:35;;;;;;;0.10;0.10;;;;;;;17.55;100.00;98707.69;5115710;28;20202;-57
2023/07/30 04:23:22;;;;;;;0.10;0.10;;;;;;;17.58;100.00;98698.53;5114124;28;20221;-56
2023/07/30 04:26:10;;;;;;;0.10;0.10;;;;;;;17.62;100.00;98692.69;5115715;28;20194;-56
2023/07/30 04:28:57;;;;;;;0.10;0.10;;;;;;;17.66;100.00;98701.25;5116557;28;20194;-57
2023/07/30 04:31:44;;;;;;;0.10;0.10;;;;;;;17.72;100.00;98692.66;5115543;28;20225;-57
2023/07/30 04:34:31;;;;;;;0.10;0.10;;;;;;;17.71;100.00;98705.19;5116395;28;20221;-57
2023/07/30 04:37:18;;;;;;;0.10;0.10;;;;;;;17.66;100.00;98691.41;5115730;28;20202;-56
2023/07/30 04:40:07;;;;;;;0.10;0.10;;;;;;;17.83;100.00;98681.69;5117288;28;20279;-56
2023/07/30 04:42:56;;;;;;;0.10;0.10;;;;;;;17.82;100.00;98674.63;5115668;28;20696;-56
2023/07/30 04:45:44;;;;;;;0.10;0.10;;;;;;;17.84;100.00;98680.69;5115464;28;20197;-56
2023/07/30 04:48:32;;;;;;;0.10;0.10;;;;;;;17.72;100.00;98680.09;5115525;28;20191;-56
2023/07/30 04:51:20;;;;;;;0.00;0.00;;;;;;;17.71;100.00;98683.78;5115345;28;20194;-56
2023/07/30 04:54:07;;;;;;;0.10;0.10;;;;;;;17.64;100.00;98689.88;5115253;27;20190;-57
2023/07/30 04:56:54;;;;;;;0.10;0.10;;;;;;;17.61;100.00;98690.19;5116118;28;20203;-57
2023/07/30 04:59:43;;;;;;;0.10;0.10;;;;;;;17.74;100.00;98698.69;5115389;28;20214;-57
2023/07/30 05:02:30;;;;;;;0.10;0.10;;;;;;;17.74;100.00;98693.31;5115809;28;20225;-57
2023/07/30 05:05:17;;;;;;;0.10;0.10;;;;;;;17.66;100.00;98696.78;5114990;28;20186;-56
2023/07/30 05:08:05;;;;;;;0.10;0.10;;;;;;;17.68;100.00;98689.41;5114610;28;20190;-57
2023/07/30 05:10:51;;;;;;;0.10;0.10;;;;;;;17.82;100.00;98684.53;5115768;28;20306;-57
2023/07/30 05:13:38;;;;;;;0.10;0.10;;;;;;;17.73;100.00;98684.44;5115814;28;20190;-57
2023/07/30 05:16:27;;;;;;;0.10;0.10;;;;;;;17.81;100.00;98693.56;5115740;28;20202;-57
2023/07/30 05:19:14;;;;;;;0.10;0.10;;;;;;;17.71;100.00;98686.44;5115539;28;20664;-57
2023/07/30 05:22:01;;;;;;;0.10;0.10;;;;;;;17.77;100.00;98676.13;5114297;28;20182;-57
2023/07/30 05:24:48;;;;;;;0.10;0.10;;;;;;;17.96;100.00;98675.94;5115593;28;20198;-57
2023/07/30 05:27:36;;;;;;;0.10;0.10;;;;;;;17.98;100.00;98665.91;5115346;28;20202;-57
2023/07/30 05:30:22;;;;;;;0.10;0.10;;;;;;;18.10;100.00;98666.47;5115494;28;20194;-56
2023/07/30 05:33:11;;;;;;;0.03;0.03;;;;;;;18.12;100.00;98670.66;5115410;28;20202;-57
2023/07/30 05:35:58;;;;;;;0.10;0.10;;;;;;;18.21;100.00;98661.66;5114758;28;20218;-57
2023/07/30 05:38:45;;;;;;;0.10;0.10;;;;;;;18.23;100.00;98674.91;5115356;28;20190;-56
2023/07/30 05:41:32;;;;;;;0.10;0.10;;;;;;;18.24;100.00;98671.25;5115260;28;20252;-57
2023/07/30 05:44:19;;;;;;;0.10;0.10;;;;;;;18.47;100.00;98672.38;5115015;28;20198;-57
2023/07/30 05:47:06;;;;;;;0.10;0.10;;;;;;;18.41;100.00;98664.13;5115055;28;20739;-57
2023/07/30 05:49:54;;;;;;;0.10;0.10;;;;;;;18.45;100.00;98660.97;5115159;28;20203;-57
2023/07/30 05:52:40;;;;;;;0.03;0.03;;;;;;;18.50;100.00;98664.00;5113673;28;20194;-57
2023/07/30 05:55:28;;;;;;;0.10;0.10;;;;;;;18.70;100.00;98661.94;5115149;28;20194;-57
2023/07/30 05:58:15;;;;;;;0.10;0.10;;;;;;;18.74;100.00;98644.53;5115005;28;20202;-56
2023/07/30 06:01:01;;;;;;;0.10;0.10;;;;;;;18.82;100.00;98643.72;5114651;28;20209;-57
2023/07/30 06:03:48;;;;;;;0.10;0.10;;;;;;;19.02;100.00;98633.53;5113684;28;20236;-57
2023/07/30 06:06:37;;;;;;;0.10;0.10;;;;;;;19.10;100.00;98630.84;5113049;28;20190;-57
2023/07/30 06:09:24;;;;;;;0.10;0.10;;;;;;;19.16;100.00;98633.72;5113770;28;20229;-57
2023/07/30 06:12:10;;;;;;;0.10;0.10;;;;;;;19.23;100.00;98631.22;5114659;28;20665;-57
2023/07/30 06:14:57;;;;;;;0.10;0.10;;;;;;;19.27;100.00;98645.97;5114651;28;20194;-57
2023/07/30 06:17:44;;;;;;;0.10;0.10;;;;;;;19.39;100.00;98644.63;5114493;28;20205;-56
2023/07/30 06:20:31;;;;;;;0.10;0.10;;;;;;;19.44;100.00;98638.78;5114483;28;20190;-57
2023/07/30 06:23:20;;;;;;;0.10;0.10;;;;;;;19.50;100.00;98637.28;5112989;28;20287;-56
2023/07/30 06:26:06;;;;;;;0.10;0.10;;;;;;;19.39;100.00;98639.25;5114105;28;20743;-57
2023/07/30 06:28:53;;;;;;;0.10;0.10;;;;;;;19.58;100.00;98638.13;5114424;28;20751;-57
2023/07/30 06:31:40;;;;;;;0.10;0.10;;;;;;;19.70;100.00;98631.44;5114348;28;20248;-57
2023/07/30 06:34:27;;;;;;;0.10;0.10;;;;;;;19.70;100.00;98641.34;5113939;28;20217;-57
2023/07/30 06:37:14;;;;;;;0.10;0.10;;;;;;;19.91;100.00;98635.44;5112817;28;20205;-57
2023/07/30 06:40:06;;;;;;;0.10;0.10;;;;;;;20.15;100.00;98631.84;5114227;28;20205;-57
2023/07/30 06:42:53;;;;;;;0.10;0.10;;;;;;;20.22;100.00;98628.28;5114002;28;20210;-57
2023/07/30 06:45:39;;;;;;;0.10;0.10;;;;;;;20.18;100.00;98620.75;5114027;28;20289;-57
2023/07/30 06:48:26;;;;;;;0.10;0.10;;;;;;;20.06;100.00;98622.13;5114054;28;20218;-57
2023/07/30 06:51:13;;;;;;;0.10;0.10;;;;;;;20.35;100.00;98637.66;5112494;28;20640;-57
2023/07/30 06:54:00;;;;;;;0.10;0.10;;;;;;;20.44;100.00;98632.13;5113882;28;20312;-57
2023/07/30 06:56:49;;;;;;;0.10;0.10;;;;;;;20.68;100.00;98641.13;5114008;28;20197;-57
2023/07/30 06:59:35;;;;;;;0.10;0.10;;;;;;;20.62;100.00;98642.66;5113911;28;20206;-57
2023/07/30 07:02:22;;;;;;;0.10;0.10;;;;;;;20.74;100.00;98641.25;5113672;28;20697;-57
2023/07/30 07:05:09;;;;;;;0.10;0.10;;;;;;;20.73;100.00;98649.50;5113740;28;20255;-57
2023/07/30 07:07:57;;;;;;;0.00;0.00;;;;;;;20.95;100.00;98637.94;5112394;28;20193;-57
2023/07/30 07:10:45;;;;;;;0.10;0.10;;;;;;;21.50;100.00;98644.16;5113637;28;20202;-57
2023/07/30 07:13:33;;;;;;;0.10;0.10;;;;;;;21.13;100.00;98643.03;5113538;28;20190;-57
2023/07/30 07:16:20;;;;;;;0.10;0.10;;;;;;;21.25;100.00;98654.28;5113506;28;20194;-57
2023/07/30 07:19:07;;;;;;;0.00;0.00;;;;;;;21.11;100.00;98650.47;5113393;28;20194;-57
2023/07/30 07:21:54;;;;;;;0.10;0.10;;;;;;;20.97;100.00;98645.84;5111945;28;20256;-57
2023/07/30 07:24:41;;;;;;;0.10;0.10;;;;;;;20.57;100.00;98653.09;5113258;28;20267;-57
2023/07/30 07:27:28;;;;;;;0.10;0.10;;;;;;;20.62;100.00;98647.19;5113333;28;20314;-57
2023/07/30 07:30:17;;;;;;;0.10;0.10;;;;;;;20.74;100.00;98648.47;5113339;28;20265;-57
2023/07/30 07:33:05;;;;;;;0.10;0.10;;;;;;;20.52;100.00;98648.22;5113347;28;20210;-57
2023/07/30 07:35:52;;;;;;;0.10;0.10;;;;;;;20.91;100.00;98651.94;5112952;28;20398;-57
2023/07/30 07:38:39;;;;;;;0.10;0.10;;;;;;;20.99;100.00;98657.28;5113388;28;20198;-57
2023/07/30 07:41:26;;;;;;;0.10;0.10;;;;;;;21.28;100.00;98657.47;5113342;28;20692;-57
2023/07/30 07:44:13;;;;;;;0.10;0.10;;;;;;;21.67;100.00;98653.81;5113112;28;20327;-56
2023/07/30 07:47:01;;;;;;;0.10;0.10;;;;;;;22.13;100.00;98653.75;5113273;28;20197;-57
2023/07/30 07:49:48;;;;;;;0.10;0.10;;;;;;;22.19;100.00;98659.22;5113166;28;20271;-57
2023/07/30 07:52:35;;;;;;;0.10;0.10;;;;;;;22.10;100.00;98654.97;5111832;28;20365;-57
2023/07/30 07:55:22;;;;;;;0.10;0.10;;;;;;;21.89;100.00;98658.31;5112847;28;20198;-57
2023/07/30 07:58:09;;;;;;;0.10;0.10;;;;;;;21.52;100.00;98661.84;5112811;28;20186;-57
2023/07/30 08:00:56;;;;;;;0.10;0.10;;;;;;;21.02;100.00;98660.44;5113031;28;20301;-57
2023/07/30 08:03:44;;;;;;;0.10;0.10;;;;;;;20.80;100.00;98666.63;5112872;28;20221;-56
2023/07/30 08:06:32;;;;;;;0.00;0.00;;;;;;;20.88;100.00;98673.84;5110824;28;20202;-56
2023/07/30 08:09:19;;;;;;;0.10;0.10;;;;;;;20.62;100.00;98671.41;5113032;28;20268;-57
2023/07/30 08:12:07;;;;;;;0.10;0.10;;;;;;;20.54;100.00;98666.88;5113016;28;20260;-57
2023/07/30 08:14:55;;;;;;;0.10;0.10;;;;;;;20.65;100.00;98665.66;5112999;28;20206;-57
2023/07/30 08:17:42;;;;;;;0.10;0.10;;;;;;;20.55;100.00;98655.13;5112850;28;20545;-57
2023/07/30 08:20:31;;;;;;;0.10;0.10;;;;;;;20.75;100.00;98653.72;5112923;28;20197;-57
2023/07/30 08:23:17;;;;;;;0.10;0.10;;;;;;;21.23;100.00;98648.19;5111568;28;20202;-56
2023/07/30 08:26:04;;;;;;;0.10;0.10;;;;;;;21.85;100.00;98645.41;5112937;28;20190;-56
2023/07/30 08:28:51;;;;;;;0.10;0.10;;;;;;;22.05;100.00;98637.63;5112700;28;20221;-57
2023/07/30 08:31:38;;;;;;;0.10;0.10;;;;;;;22.11;100.00;98636.91;5112789;28;20251;-57
2023/07/30 08:34:28;;;;;;;0.10;0.10;;;;;;;22.05;100.00;98637.63;5115132;28;20232;-57
2023/07/30 08:37:16;;;;;;;0.10;0.10;;;;;;;21.90;100.00;98634.88;5115030;28;20198;-57
2023/07/30 08:40:04;;;;;;;0.10;0.10;;;;;;;22.17;100.00;98630.75;5116540;28;20199;-56
2023/07/30 08:42:52;;;;;;;0.10;0.10;;;;;;;21.88;100.00;98628.84;5116475;28;20202;-57
2023/07/30 08:45:38;;;;;;;0.10;0.10;;;;;;;22.05;100.00;98632.22;5115982;28;20214;-57
2023/07/30 08:48:26;;;;;;;0.10;0.10;;;;;;;21.85;100.00;98640.84;5116302;28;20321;-57
2023/07/30 08:51:14;;;;;;;0.03;0.03;;;;;;;21.96;100.00;98631.47;5114931;28;20220;-57
2023/07/30 08:54:03;;;;;;;0.10;0.10;;;;;;;21.79;100.00;98635.31;5115988;28;20219;-57
2023/07/30 08:56:50;;;;;;;0.10;0.10;;;;;;;21.97;100.00;98616.94;5115983;28;20198;-56
2023/07/30 08:59:42;;;;;;;0.00;0.00;;;;;;;22.32;100.00;98611.91;5116078;28;20195;-56
2023/07/30 09:02:34;;;;;;;0.00;0.00;;;;;;;22.09;100.00;98615.50;5115675;28;20198;-58
2023/07/30 09:05:22;;;;;;;0.10;0.10;;;;;;;22.13;100.00;98627.63;5115561;28;20287;-58
2023/07/30 09:08:10;;;;;;;0.10;0.10;;;;;;;21.84;100.00;98630.25;5114637;28;20194;-55
2023/07/30 09:10:58;;;;;;;0.10;0.10;;;;;;;21.73;100.00;98626.13;5115671;28;20198;-55
2023/07/30 09:13:45;;;;;;;0.10;0.10;;;;;;;21.66;100.00;98623.31;5115729;28;20194;-55
2023/07/30 09:16:32;;;;;;;0.10;0.10;;;;;;;21.85;100.00;98629.22;5115506;28;20195;-55
2023/07/30 09:19:18;;;;;;;0.10;0.10;;;;;;;21.70;100.00;98632.69;5115757;28;20644;-55
2023/07/30 09:22:07;;;;;;;0.00;0.00;;;;;;;21.53;100.00;98636.56;5114457;28;20198;-57
2023/07/30 09:24:53;;;;;;;0.10;0.10;;;;;;;21.46;100.00;98634.78;5115381;28;20307;-57
2023/07/30 09:27:41;;;;;;;0.10;0.10;;;;;;;21.13;100.00;98649.28;5115497;28;20329;-57
2023/07/30 09:30:28;;;;;;;0.10;0.10;;;;;;;20.63;100.00;98652.38;5115571;28;20232;-57
2023/07/30 09:33:19;;;;;;;0.10;0.10;;;;;;;20.52;100.00;98661.69;5115626;28;20664;-57
2023/07/30 09:36:08;;;;;;;0.10;0.10;;;;;;;20.40;100.00;98660.34;5113723;28;20256;-57
2023/07/30 09:38:55;;;;;;;0.10;0.10;;;;;;;20.31;100.00;98658.69;5115417;28;20210;-57
2023/07/30 09:41:43;;;;;;;0.10;0.10;;;;;;;19.98;100.00;98663.31;5115412;28;20197;-59
2023/07/30 09:44:33;;;;;;;0.10;0.10;;;;;;;19.76;100.00;98678.28;5113985;28;20226;-56
2023/07/30 09:47:20;;;;;;;0.10;0.10;;;;;;;19.89;100.00;98681.31;5115164;28;20194;-57
2023/07/30 09:50:08;;;;;;;0.10;0.10;;;;;;;19.72;100.00;98701.13;5115336;28;20213;-57
2023/07/30 09:52:55;;;;;;;0.10;0.10;;;;;;;19.16;100.00;98710.75;5114325;28;20195;-57
2023/07/30 09:55:42;;;;;;;0.10;0.10;;;;;;;18.72;100.00;98735.09;5115065;28;20186;-57
2023/07/30 09:58:29;;;;;;;0.10;0.10;;;;;;;18.24;100.00;98738.28;5115192;28;20240;-56
2023/07/30 10:01:20;;;;;;;0.10;0.10;;;;;;;17.77;100.00;98761.84;5114882;28;20218;-56
2023/07/30 10:04:09;;;;;;;0.10;0.10;;;;;;;17.76;100.00;98768.19;5114738;28;20190;-58
2023/07/30 10:06:59;;;;;;;0.10;0.10;;;;;;;17.81;100.00;98784.66;5113325;28;20221;-57
2023/07/30 10:09:50;;;;;;;0.10;0.10;;;;;;;17.63;100.00;98787.28;5114693;28;20190;-56
2023/07/30 10:12:40;;;;;;;0.10;0.10;;;;;;;17.57;100.00;98790.59;5114684;28;20198;-56
2023/07/30 10:15:27;;;;;;;0.10;0.10;;;;;;;17.67;100.00;98797.56;5114424;28;20270;-58
2023/07/30 10:18:15;;;;;;;0.00;0.00;;;;;;;17.62;100.00;98790.97;5114479;28;20260;-58
2023/07/30 10:21:02;;;;;;;0.00;0.00;;;;;;;17.72;100.00;98795.28;5113240;28;20187;-57
2023/07/30 10:23:59;;;;;;;0.10;0.10;;;;;;;17.73;100.00;98796.13;5114133;28;20197;-57
2023/07/30 10:26:49;;;;;;;0.10;0.10;;;;;;;18.15;100.00;98780.28;5114359;28;20240;-58
2023/07/30 10:29:38;;;;;;;0.10;0.10;;;;;;;19.00;100.00;98775.94;5114385;28;20189;-58
2023/07/30 10:32:38;;;;;;;0.10;0.10;;;;;;;19.75;100.00;98759.91;5114286;28;20198;-57
2023/07/30 10:35:41;;;;;;;0.10;0.10;;;;;;;20.71;100.00;98743.03;5114022;28;20218;-57
2023/07/30 10:38:30;;;;;;;0.10;0.10;;;;;;;21.14;100.00;98733.63;5114006;28;20198;-57
2023/07/30 10:41:17;;;;;;;0.10;0.10;;;;;;;21.00;100.00;98726.28;5114071;28;20198;-57
2023/07/30 10:44:05;;;;;;;0.10;0.10;;;;;;;20.98;100.00;98731.00;5113016;28;20186;-57
2023/07/30 10:46:54;;;;;;;0.10;0.10;;;;;;;20.51;100.00;98729.97;5113880;28;20247;-58
2023/07/30 10:49:43;;;;;;;0.00;0.00;;;;;;;20.95;100.00;98729.50;5114731;28;20305;-58
2023/07/30 10:52:31;;;;;;;0.10;0.10;;;;;;;20.56;100.00;98735.69;5112467;28;20190;-55
2023/07/30 10:55:18;;;;;;;0.10;0.10;;;;;;;20.86;100.00;98738.63;5113216;28;20202;-56
2023/07/30 10:58:05;;;;;;;0.10;0.10;;;;;;;20.85;100.00;98737.78;5113380;28;20202;-56
2023/07/30 11:00:53;;;;;;;0.10;0.10;;;;;;;20.91;100.00;98740.78;5113952;28;20284;-56
2023/07/30 11:03:40;;;;;;;0.10;0.10;;;;;;;20.96;100.00;98749.19;5113701;28;20292;-56
2023/07/30 11:06:28;;;;;;;0.10;0.10;;;;;;;21.29;100.00;98750.75;5112008;28;20217;-56
2023/07/30 11:09:21;;;;;;;0.00;0.00;;;;;;;20.73;100.00;98759.84;5112569;28;20194;-57
2023/07/30 11:12:09;;;;;;;0.10;0.10;;;;;;;21.28;100.00;98757.16;5113523;28;20194;-57
2023/07/30 11:15:02;;;;;;;0.10;0.10;;;;;;;22.00;100.00;98749.59;5113459;28;20198;-57
2023/07/30 11:17:49;;;;;;;0.10;0.10;;;;;;;22.15;100.00;98744.25;5113427;28;20560;-57
2023/07/30 11:20:37;;;;;;;0.10;0.10;;;;;;;22.07;100.00;98749.72;5113419;28;20212;-57
2023/07/30 11:23:24;;;;;;;0.10;0.10;;;;;;;21.89;100.00;98762.66;5112911;28;20205;-55
2023/07/30 11:26:15;;;;;;;0.10;0.10;;;;;;;21.52;100.00;98761.56;5113130;28;20221;-55
2023/07/30 11:29:15;;;;;;;0.10;0.10;;;;;;;21.75;100.00;98769.66;5112993;28;20206;-56
2023/07/30 11:32:02;;;;;;;0.10;0.10;;;;;;;21.51;100.00;98764.41;5113049;28;20240;-56
2023/07/30 11:34:50;;;;;;;0.10;0.10;;;;;;;21.51;100.00;98770.66;5113095;28;20307;-55
2023/07/30 11:37:39;;;;;;;0.10;0.10;;;;;;;21.85;100.00;98772.97;5111443;28;20198;-55
2023/07/30 11:40:27;;;;;;;0.10;0.10;;;;;;;22.26;100.00;98770.81;5113457;28;20198;-58
2023/07/30 11:43:15;;;;;;;0.10;0.10;;;;;;;22.97;100.00;98789.34;5111692;28;20685;-57
2023/07/30 11:46:11;;;;;;;0.10;0.10;;;;;;;23.59;100.00;98787.06;5113196;28;20226;-57
2023/07/30 11:49:12;;;;;;;0.10;0.10;;;;;;;23.07;100.00;98779.97;5113257;28;20744;-56
2023/07/30 11:52:07;;;;;;;0.10;0.10;;;;;;;22.33;100.00;98792.50;5111867;28;20190;-57
2023/07/30 11:55:02;;;;;;;0.00;0.00;;;;;;;21.80;100.00;98796.09;5113198;28;20681;-57
2023/07/30 11:57:49;;;;;;;0.10;0.10;;;;;;;21.39;100.00;98801.72;5112974;28;20194;-57
2023/07/30 12:00:39;;;;;;;0.10;0.10;;;;;;;20.83;100.00;98800.88;5113131;28;20201;-57
2023/07/30 12:03:26;;;;;;;0.00;0.00;;;;;;;20.46;100.00;98810.38;5113070;28;20297;-56
2023/07/30 12:06:14;;;;;;;0.10;0.10;;;;;;;20.28;100.00;98809.69;5111698;28;20338;-56
2023/07/30 12:09:01;;;;;;;0.10;0.10;;;;;;;20.28;100.00;98826.66;5116107;28;20189;-56
2023/07/30 12:11:49;;;;;;;0.10;0.10;;;;;;;19.76;100.00;98815.34;5117071;28;20277;-57
2023/07/30 12:14:45;;;;;;;0.10;0.10;;;;;;;19.58;100.00;98817.31;5117075;28;20255;-56
2023/07/30 12:17:33;;;;;;;0.10;0.10;;;;;;;19.40;100.00;98818.25;5116990;28;20301;-56
2023/07/30 12:20:20;;;;;;;0.10;0.10;;;;;;;19.55;100.00;98815.75;5116898;28;20677;-56
2023/07/30 12:23:07;;;;;;;0.10;0.10;;;;;;;19.94;100.00;98813.34;5114547;28;20195;-56
2023/07/30 12:25:54;;;;;;;0.10;0.10;;;;;;;20.83;100.00;98808.94;5116880;28;20696;-57
2023/07/30 12:28:41;;;;;;;0.10;0.10;;;;;;;23.19;100.00;98804.66;5116758;28;20198;-57
2023/07/30 12:31:28;;;;;;;0.10;0.10;;;;;;;25.65;100.00;98808.47;5115662;28;20668;-57
2023/07/30 12:34:16;;;;;;;0.00;0.00;;;;;;;26.15;94.11;98803.59;5116284;28;20221;-58
2023/07/30 12:37:03;;;;;;;0.10;0.10;;;;;;;25.07;94.55;98795.25;5115345;28;20194;-57
2023/07/30 12:39:50;;;;;;;0.00;0.00;;;;;;;24.05;100.00;98804.84;5116561;28;20206;-57
2023/07/30 12:42:37;;;;;;;0.00;0.00;;;;;;;23.31;100.00;98797.72;5116662;28;20202;-57
2023/07/30 12:45:24;;;;;;;0.10;0.10;;;;;;;22.89;100.00;98802.97;5116432;28;20201;-57
2023/07/30 12:48:11;;;;;;;0.10;0.10;;;;;;;22.14;100.00;98809.19;5116417;28;20264;-57
2023/07/30 12:50:59;;;;;;;0.10;0.10;;;;;;;23.63;100.00;98804.59;5115004;28;20313;-57
2023/07/30 12:53:46;;;;;;;0.10;0.10;;;;;;;26.20;89.60;98801.94;5116447;28;20210;-57
2023/07/30 12:56:33;;;;;;;0.10;0.10;;;;;;;28.27;76.15;98794.88;5116436;28;20271;-57
2023/07/30 12:59:23;;;;;;;0.00;0.00;;;;;;;29.95;67.17;98792.72;5116185;28;20202;-57